Terminal Aerodrome Forecast
Issued by NWS Charleston, WV

Current Version | Previous Version | Text Only | Print | Product List | Glossary Off
Versions: 1 2 3 4 5 6 7 8 9 10 11 12 13 14 15 16 17 18 19 20 21 22 23 24

000
FTUS41 KRLX 272104 AAA
TAFPKB
TAF AMD
KPKB 272104Z 2721/2818 21008KT P6SM VCSH SCT040
     FM280000 20005KT P6SM SCT045
     FM280300 20003KT P6SM BKN050
     FM280500 VRB03KT P6SM VCTS BKN050CB
     FM281100 00000KT P6SM SCT040=

USA.gov is the U.S. government's official web portal to all federal, state and local government web resources and services.